createdAt,value
2023-01-11T00:02:04.824Z,21.08
2023-01-11T00:04:41.215Z,20.40
2023-01-11T00:07:14.570Z,21.15
2023-01-11T00:09:42.821Z,20.17
2023-01-11T00:12:14.321Z,21.13
2023-01-11T00:15:10.946Z,20.25
2023-01-11T00:17:44.084Z,19.42
2023-01-11T00:20:13.044Z,19.42
2023-01-11T00:22:41.299Z,19.23
2023-01-11T00:25:16.542Z,19.38
2023-01-11T00:27:47.257Z,19.60
2023-01-11T00:30:15.920Z,19.08
2023-01-11T00:32:46.619Z,20.25
2023-01-11T00:35:15.057Z,19.52
2023-01-11T00:37:43.699Z,20.23
2023-01-11T00:40:12.443Z,20.13
2023-01-11T00:42:58.078Z,20.33
2023-01-11T00:45:46.040Z,19.42
2023-01-11T00:48:15.824Z,19.27
2023-01-11T00:50:45.298Z,19.58
2023-01-11T00:53:18.314Z,19.27
2023-01-11T00:55:46.342Z,19.45
2023-01-11T00:58:14.408Z,18.88
2023-01-11T01:00:42.503Z,19.05
2023-01-11T01:03:10.749Z,19.92
2023-01-11T01:05:43.414Z,20.40
2023-01-11T01:08:11.563Z,19.83
2023-01-11T01:10:39.769Z,19.55
2023-01-11T01:13:25.207Z,19.30
2023-01-11T01:15:58.523Z,19.33
2023-01-11T01:18:26.714Z,19.25
2023-01-11T01:20:58.920Z,19.60
2023-01-11T01:23:27.022Z,18.85
2023-01-11T01:25:55.038Z,18.42
2023-01-11T01:28:23.097Z,19.55
2023-01-11T01:30:52.338Z,19.10
2023-01-11T01:33:20.549Z,19.20
2023-01-11T01:35:48.889Z,19.45
2023-01-11T01:38:23.072Z,19.08
2023-01-11T01:40:51.213Z,19.40
2023-01-11T01:43:19.970Z,18.88
2023-01-11T01:45:50.094Z,19.33
2023-01-11T01:48:22.080Z,18.88
2023-01-11T01:50:53.641Z,19.10
2023-01-11T01:53:27.091Z,19.48
2023-01-11T01:55:59.644Z,18.70
2023-01-11T01:58:32.551Z,19.30
2023-01-11T02:01:24.244Z,18.60
2023-01-11T02:03:53.566Z,18.58
2023-01-11T02:06:24.229Z,18.70
2023-01-11T02:09:04.038Z,18.10
2023-01-11T02:11:43.301Z,18.08
2023-01-11T02:14:18.553Z,18.00
2023-01-11T02:16:47.042Z,17.33
2023-01-11T02:19:25.319Z,17.17
2023-01-11T02:22:18.448Z,17.02
2023-01-11T02:25:05.970Z,16.92
2023-01-11T02:27:53.618Z,17.40
2023-01-11T02:30:29.690Z,17.15
2023-01-11T02:33:08.132Z,17.75
2023-01-11T02:35:56.413Z,17.27
2023-01-11T02:38:32.253Z,17.60
2023-01-11T02:41:06.673Z,17.27
2023-01-11T02:44:00.282Z,16.77
2023-01-11T02:46:37.927Z,16.02
2023-01-11T02:49:10.631Z,16.15
2023-01-11T02:51:44.525Z,16.27
2023-01-11T02:54:14.691Z,16.30
2023-01-11T02:56:45.525Z,16.58
2023-01-11T02:59:18.320Z,17.08
2023-01-11T03:01:48.795Z,16.88
2023-01-11T03:04:25.173Z,16.95
2023-01-11T03:07:12.072Z,17.83
2023-01-11T03:09:51.602Z,17.80
2023-01-11T03:12:54.659Z,17.23
2023-01-11T03:15:50.236Z,17.88
2023-01-11T03:18:32.382Z,17.10
2023-01-11T03:21:13.825Z,18.17
2023-01-11T03:23:54.934Z,17.80
2023-01-11T03:26:34.608Z,17.85
2023-01-11T03:29:12.077Z,18.10
2023-01-11T03:31:46.081Z,18.85
2023-01-11T03:34:19.572Z,18.67
2023-01-11T03:36:53.869Z,18.75
2023-01-11T03:39:28.491Z,18.92
2023-01-11T03:42:01.117Z,19.35
2023-01-11T03:44:34.200Z,19.30
2023-01-11T03:47:06.268Z,19.40
2023-01-11T03:49:43.840Z,19.13
2023-01-11T03:52:15.946Z,19.77
2023-01-11T03:54:46.850Z,19.05
2023-01-11T03:57:19.101Z,19.27
2023-01-11T03:59:47.502Z,19.42
2023-01-11T04:02:20.190Z,19.65
2023-01-11T04:04:50.374Z,20.15
2023-01-11T04:07:18.959Z,20.95
2023-01-11T04:09:47.373Z,20.50
2023-01-11T04:12:15.810Z,20.90
2023-01-11T04:14:47.399Z,20.92
2023-01-11T04:17:15.685Z,20.77
2023-01-11T04:19:43.680Z,21.13
2023-01-11T04:22:13.174Z,20.75
2023-01-11T04:24:41.290Z,20.15
2023-01-11T04:27:13.301Z,20.90
2023-01-11T04:29:43.557Z,21.15
2023-01-11T04:32:11.738Z,21.83
2023-01-11T04:34:40.173Z,21.38
2023-01-11T04:37:08.644Z,22.38
2023-01-11T04:39:39.004Z,21.98
2023-01-11T04:42:23.588Z,21.83
2023-01-11T04:44:52.818Z,22.38
2023-01-11T04:47:22.932Z,21.70
2023-01-11T04:49:51.139Z,22.17
2023-01-11T04:52:21.257Z,22.02
2023-01-11T04:54:54.111Z,21.63
2023-01-11T04:57:25.489Z,21.50
2023-01-11T04:59:53.512Z,21.35
2023-01-11T05:02:21.613Z,21.25
2023-01-11T05:04:49.708Z,21.70
2023-01-11T05:07:17.822Z,21.38
2023-01-11T05:09:46.089Z,21.55
2023-01-11T05:12:16.066Z,22.08
2023-01-11T05:14:45.469Z,21.55
2023-01-11T05:17:15.143Z,21.67
2023-01-11T05:19:43.840Z,21.40
2023-01-11T05:22:12.192Z,21.10
2023-01-11T05:24:40.412Z,21.40
2023-01-11T05:27:09.291Z,21.75
2023-01-11T05:29:39.247Z,21.55
2023-01-11T05:32:07.513Z,22.20
2023-01-11T05:34:35.593Z,22.42
2023-01-11T05:37:03.915Z,21.65
2023-01-11T05:39:32.041Z,22.77
2023-01-11T05:42:00.085Z,21.92
2023-01-11T05:44:45.334Z,22.20
2023-01-11T05:47:14.800Z,22.70
2023-01-11T05:49:43.381Z,21.90
2023-01-11T05:52:11.637Z,22.67
2023-01-11T05:54:40.019Z,22.73
2023-01-11T05:57:11.647Z,22.52
2023-01-11T05:59:39.956Z,22.33
2023-01-11T06:02:08.140Z,23.10
2023-01-11T06:04:38.854Z,22.23
2023-01-11T06:07:10.047Z,22.95
2023-01-11T06:09:38.288Z,21.85
2023-01-11T06:12:06.811Z,22.15
2023-01-11T06:14:37.921Z,22.63
2023-01-11T06:17:06.280Z,22.20
2023-01-11T06:19:34.551Z,20.90
2023-01-11T06:22:05.543Z,21.02
2023-01-11T06:24:33.738Z,21.95
2023-01-11T06:27:01.834Z,22.65
2023-01-11T06:29:30.025Z,22.58
2023-01-11T06:31:58.786Z,22.10
2023-01-11T06:34:27.495Z,22.30
2023-01-11T06:36:55.551Z,21.65
2023-01-11T06:39:25.091Z,21.92
2023-01-11T06:41:53.174Z,22.30
2023-01-11T06:44:21.543Z,22.23
2023-01-11T06:46:52.031Z,22.13
2023-01-11T06:49:20.398Z,22.10
2023-01-11T06:51:48.774Z,22.23
2023-01-11T06:54:22.031Z,22.42
2023-01-11T06:56:51.640Z,22.73
2023-01-11T06:59:19.794Z,22.48
2023-01-11T07:01:48.461Z,22.45
2023-01-11T07:04:18.817Z,22.77
2023-01-11T07:06:46.915Z,22.55
2023-01-11T07:09:15.409Z,22.55
2023-01-11T07:11:43.748Z,23.17
2023-01-11T07:14:20.015Z,21.98
2023-01-11T07:16:48.299Z,22.98
2023-01-11T07:19:18.157Z,22.98
2023-01-11T07:21:46.977Z,23.42
2023-01-11T07:24:17.236Z,23.45
2023-01-11T07:26:47.652Z,23.08
2023-01-11T07:29:17.628Z,22.98
2023-01-11T07:31:47.885Z,23.50
2023-01-11T07:34:16.572Z,23.27
2023-01-11T07:36:45.063Z,23.95
2023-01-11T07:39:13.587Z,23.20
2023-01-11T07:41:58.893Z,23.45
2023-01-11T07:44:28.578Z,23.80
2023-01-11T07:46:57.181Z,23.67
2023-01-11T07:49:25.601Z,23.80
2023-01-11T07:51:56.473Z,23.73
2023-01-11T07:54:25.929Z,24.00
2023-01-11T07:56:54.189Z,23.85
2023-01-11T07:59:22.206Z,24.33
2023-01-11T08:01:51.809Z,23.92
2023-01-11T08:04:20.144Z,23.25
2023-01-11T08:06:48.546Z,24.33
2023-01-11T08:09:17.159Z,24.42
2023-01-11T08:12:03.191Z,24.27
2023-01-11T08:14:47.866Z,23.95
2023-01-11T08:17:17.952Z,23.23
2023-01-11T08:19:46.272Z,24.38
2023-01-11T08:22:17.441Z,24.17
2023-01-11T08:24:45.766Z,24.27
2023-01-11T08:27:14.373Z,23.27
2023-01-11T08:29:44.316Z,23.08
2023-01-11T08:32:15.799Z,22.90
2023-01-11T08:34:47.872Z,22.55
2023-01-11T08:37:16.059Z,22.33
2023-01-11T08:39:44.133Z,22.35
2023-01-11T08:42:12.302Z,22.15
2023-01-11T08:44:40.467Z,21.98
2023-01-11T08:47:08.784Z,21.80
2023-01-11T08:49:36.899Z,22.00
2023-01-11T08:52:07.338Z,22.48
2023-01-11T08:54:35.599Z,22.63
2023-01-11T08:57:03.829Z,22.13
2023-01-11T08:59:31.853Z,22.55
2023-01-11T09:02:00.245Z,22.63
2023-01-11T09:04:28.624Z,22.88
2023-01-11T09:06:56.788Z,23.40
2023-01-11T09:09:26.292Z,23.23
2023-01-11T09:12:00.523Z,22.08
2023-01-11T09:14:29.592Z,23.85
2023-01-11T09:16:57.973Z,23.50
2023-01-11T09:19:26.808Z,23.40
2023-01-11T09:21:58.475Z,23.42
2023-01-11T09:24:31.836Z,23.27
2023-01-11T09:27:00.500Z,23.40
2023-01-11T09:29:28.816Z,23.27
2023-01-11T09:31:57.182Z,23.75
2023-01-11T09:34:27.562Z,23.70
2023-01-11T09:36:56.795Z,23.92
2023-01-11T09:39:27.600Z,25.10
2023-01-11T09:42:32.251Z,23.92
2023-01-11T09:45:07.340Z,24.00
2023-01-11T09:47:41.110Z,24.48
2023-01-11T09:50:17.776Z,24.00
2023-01-11T09:52:49.898Z,24.00
2023-01-11T09:55:24.610Z,23.88
2023-01-11T09:58:11.210Z,23.08
2023-01-11T10:00:51.796Z,23.88
2023-01-11T10:03:57.375Z,23.05
2023-01-11T10:06:30.274Z,24.00
2023-01-11T10:18:34.254Z,23.23
2023-01-11T10:18:49.395Z,23.42
2023-01-11T10:21:28.896Z,22.98
2023-01-11T10:24:03.252Z,22.60
2023-01-11T10:26:39.716Z,21.95
2023-01-11T10:29:39.859Z,22.40
2023-01-11T10:32:40.041Z,22.42
2023-01-11T10:35:29.273Z,23.15
2023-01-11T10:38:23.461Z,21.70
2023-01-11T10:41:08.523Z,21.90
2023-01-11T10:43:42.733Z,22.83
2023-01-11T10:46:14.420Z,22.85
2023-01-11T10:48:46.209Z,22.98
2023-01-11T10:51:27.289Z,22.10
2023-01-11T10:54:12.486Z,22.27
2023-01-11T10:57:02.922Z,21.35
2023-01-11T10:59:58.543Z,21.20
2023-01-11T11:03:02.632Z,21.85
2023-01-11T11:05:42.360Z,21.42
2023-01-11T11:08:15.215Z,21.27
2023-01-11T11:10:49.826Z,21.38
2023-01-11T11:13:24.911Z,20.17
2023-01-11T11:16:02.463Z,20.85
2023-01-11T11:18:31.024Z,21.38
2023-01-11T11:21:17.231Z,21.33
2023-01-11T11:23:48.465Z,21.05
2023-01-11T11:26:17.187Z,21.13
2023-01-11T11:29:01.870Z,20.80
2023-01-11T11:31:34.236Z,20.05
2023-01-11T11:34:08.691Z,19.35
2023-01-11T11:36:45.712Z,19.90
2023-01-11T11:39:21.848Z,18.98
2023-01-11T11:41:51.967Z,17.85
2023-01-11T11:44:25.419Z,20.33
2023-01-11T11:47:00.287Z,20.08
2023-01-11T11:49:30.429Z,20.13
2023-01-11T11:52:06.235Z,20.10
2023-01-11T11:54:49.683Z,18.95
2023-01-11T11:57:28.574Z,20.35
2023-01-11T12:00:21.909Z,19.70
2023-01-11T12:06:49.422Z,21.35
2023-01-11T12:16:22.217Z,23.08
2023-01-11T12:18:50.309Z,23.20
2023-01-11T12:21:23.246Z,22.08
2023-01-11T12:24:11.751Z,23.67
2023-01-11T12:26:48.248Z,21.40
2023-01-11T12:29:44.760Z,22.83
2023-01-11T12:32:30.541Z,22.75
2023-01-11T12:35:28.005Z,22.58
2023-01-11T12:38:13.584Z,21.65
2023-01-11T12:40:53.445Z,23.45
2023-01-11T12:43:33.051Z,23.30
2023-01-11T12:46:16.363Z,23.10
2023-01-11T12:49:07.490Z,23.52
2023-01-11T12:52:05.938Z,23.98
2023-01-11T12:54:53.912Z,24.00
2023-01-11T12:57:30.359Z,24.73
2023-01-11T13:00:23.550Z,23.13
2023-01-11T13:03:10.497Z,23.60
2023-01-11T13:06:00.597Z,23.60
2023-01-11T13:08:40.851Z,24.20
2023-01-11T13:11:35.049Z,24.20
2023-01-11T13:14:17.462Z,21.33
2023-01-11T13:16:54.598Z,22.58
2023-01-11T13:19:29.215Z,24.05
2023-01-11T13:21:59.319Z,22.15
2023-01-11T13:24:30.739Z,21.83
2023-01-11T13:27:03.726Z,23.13
2023-01-11T13:29:34.943Z,22.67
2023-01-11T13:32:10.373Z,21.70
2023-01-11T13:34:43.223Z,22.67
2023-01-11T13:37:16.854Z,21.73
2023-01-11T13:39:49.956Z,21.52
2023-01-11T13:42:23.373Z,22.02
2023-01-11T13:44:54.600Z,22.30
2023-01-11T13:47:28.793Z,22.83
2023-01-11T13:50:05.949Z,22.70
2023-01-11T13:52:49.867Z,23.05
2023-01-11T13:55:25.968Z,23.83
2023-01-11T13:58:01.317Z,24.45
2023-01-11T14:00:34.866Z,25.30
2023-01-11T14:03:13.624Z,26.05
2023-01-11T14:05:52.970Z,26.40
2023-01-11T14:08:45.820Z,25.35
2023-01-11T14:11:23.612Z,27.30
2023-01-11T14:14:18.123Z,27.77
2023-01-11T14:17:08.362Z,26.40
2023-01-11T14:19:45.568Z,26.52
2023-01-11T14:22:25.101Z,26.52
2023-01-11T14:25:00.031Z,25.20
2023-01-11T14:27:48.709Z,25.77
2023-01-11T14:30:43.452Z,26.60
2023-01-11T14:33:46.242Z,27.05
2023-01-11T14:37:03.016Z,27.02
2023-01-11T14:39:57.574Z,27.27
2023-01-11T14:42:51.027Z,27.90
2023-01-11T14:45:29.570Z,28.25
2023-01-11T14:48:25.148Z,28.08
2023-01-11T14:51:14.816Z,27.92
2023-01-11T14:53:46.593Z,26.55
2023-01-11T14:56:38.003Z,27.27
2023-01-11T14:59:08.074Z,26.23
2023-01-11T15:02:17.099Z,26.73
2023-01-11T15:05:08.249Z,26.48
2023-01-11T15:07:39.251Z,27.67
2023-01-11T15:10:49.167Z,25.50
2023-01-11T15:13:21.350Z,27.02
2023-01-11T15:16:07.928Z,27.95
2023-01-11T15:18:45.655Z,27.73
2023-01-11T15:21:17.466Z,28.30
2023-01-11T15:23:51.731Z,26.95
2023-01-11T15:26:22.368Z,27.98
2023-01-11T15:28:52.479Z,27.38
2023-01-11T15:31:34.539Z,28.17
2023-01-11T15:34:21.998Z,28.75
2023-01-11T15:36:56.288Z,29.40
2023-01-11T15:39:35.765Z,28.65
2023-01-11T15:42:44.476Z,28.65
2023-01-11T15:46:14.611Z,28.67
2023-01-11T15:48:58.123Z,28.67
2023-01-11T15:51:53.794Z,28.42
2023-01-11T15:55:00.519Z,27.65
2023-01-11T15:57:50.429Z,28.20
2023-01-11T16:00:56.881Z,27.65
2023-01-11T16:03:50.035Z,28.08
2023-01-11T16:06:27.708Z,27.48
2023-01-11T16:09:05.616Z,26.60
2023-01-11T16:11:42.221Z,26.80
2023-01-11T16:14:45.995Z,26.17
2023-01-11T16:17:14.956Z,26.50
2023-01-11T16:19:45.417Z,25.85
2023-01-11T16:22:19.636Z,24.67
2023-01-11T16:24:51.032Z,25.00
2023-01-11T16:27:24.798Z,24.27
2023-01-11T16:29:55.412Z,24.42
2023-01-11T16:32:26.977Z,25.92
2023-01-11T16:34:55.860Z,24.10
2023-01-11T16:37:32.744Z,24.40
2023-01-11T16:40:07.452Z,24.45
2023-01-11T16:42:41.015Z,24.83
2023-01-11T16:45:18.303Z,23.98
2023-01-11T16:54:08.201Z,23.60
2023-01-11T16:56:45.776Z,25.30
2023-01-11T16:59:28.116Z,24.95
2023-01-11T17:02:08.880Z,24.20
2023-01-11T17:05:00.803Z,24.02
2023-01-11T17:07:30.892Z,24.83
2023-01-11T17:10:22.173Z,24.70
2023-01-11T17:13:04.078Z,24.02
2023-01-11T17:15:38.526Z,25.23
2023-01-11T17:18:14.790Z,24.20
2023-01-11T17:20:56.087Z,25.20
2023-01-11T17:23:24.358Z,23.52
2023-01-11T17:26:03.908Z,22.77
2023-01-11T17:28:37.676Z,23.35
2023-01-11T17:31:06.746Z,24.05
2023-01-11T17:33:45.318Z,25.08
2023-01-11T17:36:13.888Z,25.80
2023-01-11T17:38:43.600Z,24.52
2023-01-11T17:41:33.877Z,25.38
2023-01-11T17:44:19.550Z,25.77
2023-01-11T17:46:47.996Z,25.63
2023-01-11T17:49:23.996Z,24.98
2023-01-11T17:51:52.280Z,26.65
2023-01-11T17:54:21.775Z,25.42
2023-01-11T17:56:57.223Z,26.00
2023-01-11T17:59:30.423Z,27.08
2023-01-11T18:02:02.824Z,26.92
2023-01-11T18:04:34.314Z,26.33
2023-01-11T18:07:14.617Z,27.17
2023-01-11T18:09:46.956Z,27.98
2023-01-11T18:12:18.148Z,27.60
2023-01-11T18:14:54.358Z,27.00
2023-01-11T18:17:40.464Z,27.73
2023-01-11T18:20:37.836Z,26.55
2023-01-11T18:23:19.540Z,25.33
2023-01-11T18:25:48.187Z,26.52
2023-01-11T18:28:29.038Z,25.85
2023-01-11T18:31:01.825Z,26.30
2023-01-11T18:33:35.164Z,26.38
2023-01-11T18:36:21.210Z,26.17
2023-01-11T18:38:50.458Z,25.55
2023-01-11T18:41:36.730Z,26.08
2023-01-11T18:44:05.238Z,26.55
2023-01-11T18:46:35.241Z,26.65
2023-01-11T18:49:03.749Z,26.20
2023-01-11T18:51:36.959Z,26.23
2023-01-11T18:54:06.815Z,26.38
2023-01-11T18:56:34.939Z,26.17
2023-01-11T18:59:03.542Z,26.15
2023-01-11T19:01:37.646Z,26.55
2023-01-11T19:04:11.514Z,25.20
2023-01-11T19:06:47.476Z,26.25
2023-01-11T19:09:15.846Z,26.45
2023-01-11T19:11:44.204Z,25.60
2023-01-11T19:20:59.877Z,24.80
2023-01-11T19:23:50.328Z,23.83
2023-01-11T19:26:23.568Z,24.33
2023-01-11T19:31:47.203Z,23.77
2023-01-11T19:38:09.095Z,24.02
2023-01-11T19:40:41.335Z,23.33
2023-01-11T19:43:26.612Z,23.73
2023-01-11T19:46:30.828Z,23.75
2023-01-11T19:52:14.516Z,24.80
2023-01-11T19:54:43.636Z,24.55
2023-01-11T19:57:15.737Z,24.75
2023-01-11T19:59:43.919Z,24.20
2023-01-11T20:02:13.359Z,24.13
2023-01-11T20:04:42.231Z,23.90
2023-01-11T20:07:12.311Z,23.02
2023-01-11T20:09:47.815Z,23.88
2023-01-11T20:12:17.464Z,23.73
2023-01-11T20:14:46.518Z,24.05
2023-01-11T20:17:21.207Z,24.33
2023-01-11T20:19:54.586Z,24.88
2023-01-11T20:22:23.798Z,24.02
2023-01-11T20:24:53.241Z,24.48
2023-01-11T20:27:23.172Z,24.60
2023-01-11T20:29:51.472Z,24.98
2023-01-11T20:32:39.695Z,24.50
2023-01-11T20:35:08.815Z,24.88
2023-01-11T20:37:46.034Z,24.92
2023-01-11T20:40:14.528Z,25.48
2023-01-11T20:42:44.061Z,25.05
2023-01-11T20:45:12.437Z,23.67
2023-01-11T20:47:40.389Z,25.52
2023-01-11T20:50:09.732Z,24.38
2023-01-11T20:52:37.799Z,25.10
2023-01-11T20:55:06.931Z,24.42
2023-01-11T20:57:41.225Z,24.48
2023-01-11T21:00:15.373Z,24.65
2023-01-11T21:02:46.519Z,25.13
2023-01-11T21:05:15.265Z,25.33
2023-01-11T21:07:44.317Z,24.23
2023-01-11T21:10:13.148Z,24.90
2023-01-11T21:12:41.389Z,24.52
2023-01-11T21:15:11.989Z,25.92
2023-01-11T21:17:42.210Z,24.73
2023-01-11T21:20:14.643Z,24.40
2023-01-11T21:22:43.422Z,23.60
2023-01-11T21:25:14.333Z,25.20
2023-01-11T21:27:42.510Z,24.63
2023-01-11T21:30:13.643Z,25.13
2023-01-11T21:32:41.974Z,25.05
2023-01-11T21:35:11.103Z,25.58
2023-01-11T21:37:42.408Z,24.45
2023-01-11T21:40:15.555Z,24.88
2023-01-11T21:42:44.763Z,25.30
2023-01-11T21:45:15.027Z,25.27
2023-01-11T21:47:45.660Z,24.92
2023-01-11T21:50:16.914Z,24.65
2023-01-11T21:52:45.182Z,25.40
2023-01-11T21:55:14.182Z,24.63
2023-01-11T21:57:42.406Z,24.75
2023-01-11T22:00:14.463Z,26.23
2023-01-11T22:02:44.996Z,25.55
2023-01-11T22:05:18.455Z,26.02
2023-01-11T22:07:47.076Z,25.65
2023-01-11T22:10:16.191Z,25.38
2023-01-11T22:12:45.984Z,25.27
2023-01-11T22:15:14.259Z,25.05
2023-01-11T22:17:43.856Z,25.73
2023-01-11T22:20:15.224Z,26.02
2023-01-11T22:22:43.502Z,25.80
2023-01-11T22:25:12.001Z,26.48
2023-01-11T22:27:40.023Z,26.58
2023-01-11T22:30:12.579Z,25.80
2023-01-11T22:32:41.812Z,25.60
2023-01-11T22:35:11.900Z,26.58
2023-01-11T22:37:43.230Z,26.77
2023-01-11T22:40:12.447Z,26.08
2023-01-11T22:42:40.582Z,26.42
2023-01-11T22:45:10.459Z,25.63
2023-01-11T22:47:38.831Z,26.20
2023-01-11T22:50:07.565Z,25.83
2023-01-11T22:52:37.733Z,25.60
2023-01-11T22:55:06.623Z,26.20
2023-01-11T22:57:34.904Z,26.40
2023-01-11T23:00:04.733Z,25.80
2023-01-11T23:02:32.842Z,25.73
2023-01-11T23:05:00.897Z,25.95
2023-01-11T23:07:28.864Z,25.90
2023-01-11T23:09:58.638Z,25.83
2023-01-11T23:12:44.205Z,26.88
2023-01-11T23:15:12.573Z,27.15
2023-01-11T23:17:40.614Z,27.75
2023-01-11T23:20:10.145Z,27.92
2023-01-11T23:22:39.225Z,28.45
2023-01-11T23:25:10.105Z,27.30
2023-01-11T23:27:40.520Z,28.27
2023-01-11T23:30:10.123Z,28.70
2023-01-11T23:32:38.611Z,28.25
2023-01-11T23:35:09.015Z,27.83
2023-01-11T23:37:39.539Z,27.83
2023-01-11T23:40:11.336Z,28.77
2023-01-11T23:42:38.564Z,28.83
2023-01-11T23:45:07.499Z,28.85
2023-01-11T23:47:34.623Z,29.33
2023-01-11T23:50:02.585Z,28.38
2023-01-11T23:52:34.583Z,29.42
2023-01-11T23:55:02.592Z,28.83
2023-01-11T23:57:32.319Z,29.05
